sensor_id;sensor_type;location;lat;lon;timestamp;P1;durP1;ratioP1;P2;durP2;ratioP2
54787;SDS011;59598;48.112;16.280;2024-03-07T00:01:00;27.35;;;17.85;;
54787;SDS011;59598;48.112;16.280;2024-03-07T00:03:33;25.17;;;16.23;;
54787;SDS011;59598;48.112;16.280;2024-03-07T00:06:04;26.98;;;17.75;;
54787;SDS011;59598;48.112;16.280;2024-03-07T00:08:36;25.50;;;17.80;;
54787;SDS011;59598;48.112;16.280;2024-03-07T00:11:12;28.65;;;18.35;;
54787;SDS011;59598;48.112;16.280;2024-03-07T00:13:43;26.58;;;16.58;;
54787;SDS011;59598;48.112;16.280;2024-03-07T00:16:14;22.33;;;14.32;;
54787;SDS011;59598;48.112;16.280;2024-03-07T00:18:48;27.33;;;17.50;;
54787;SDS011;59598;48.112;16.280;2024-03-07T00:21:19;27.33;;;18.13;;
54787;SDS011;59598;48.112;16.280;2024-03-07T00:23:51;27.38;;;17.92;;
54787;SDS011;59598;48.112;16.280;2024-03-07T00:26:23;24.45;;;15.48;;
54787;SDS011;59598;48.112;16.280;2024-03-07T00:28:54;27.30;;;17.60;;
54787;SDS011;59598;48.112;16.280;2024-03-07T00:31:26;29.33;;;19.30;;
54787;SDS011;59598;48.112;16.280;2024-03-07T00:33:57;29.23;;;19.70;;
54787;SDS011;59598;48.112;16.280;2024-03-07T00:36:28;34.03;;;21.90;;
54787;SDS011;59598;48.112;16.280;2024-03-07T00:39:06;31.88;;;20.35;;
54787;SDS011;59598;48.112;16.280;2024-03-07T00:41:42;34.75;;;21.35;;
54787;SDS011;59598;48.112;16.280;2024-03-07T00:46:48;34.63;;;21.15;;
54787;SDS011;59598;48.112;16.280;2024-03-07T00:49:20;35.78;;;22.50;;
54787;SDS011;59598;48.112;16.280;2024-03-07T00:51:51;34.30;;;22.48;;
54787;SDS011;59598;48.112;16.280;2024-03-07T00:54:25;38.78;;;24.33;;
54787;SDS011;59598;48.112;16.280;2024-03-07T00:56:59;35.78;;;21.75;;
54787;SDS011;59598;48.112;16.280;2024-03-07T00:59:31;35.97;;;22.88;;
54787;SDS011;59598;48.112;16.280;2024-03-07T01:02:02;38.35;;;25.23;;
54787;SDS011;59598;48.112;16.280;2024-03-07T01:04:34;35.35;;;22.13;;
54787;SDS011;59598;48.112;16.280;2024-03-07T01:07:06;40.53;;;23.65;;
54787;SDS011;59598;48.112;16.280;2024-03-07T01:09:37;37.20;;;22.55;;
54787;SDS011;59598;48.112;16.280;2024-03-07T01:12:08;37.33;;;22.95;;
54787;SDS011;59598;48.112;16.280;2024-03-07T01:14:43;35.55;;;22.52;;
54787;SDS011;59598;48.112;16.280;2024-03-07T01:17:14;33.80;;;21.80;;
54787;SDS011;59598;48.112;16.280;2024-03-07T01:19:45;37.58;;;23.33;;
54787;SDS011;59598;48.112;16.280;2024-03-07T01:22:16;32.72;;;21.30;;
54787;SDS011;59598;48.112;16.280;2024-03-07T01:24:47;31.00;;;20.52;;
54787;SDS011;59598;48.112;16.280;2024-03-07T01:27:19;34.50;;;21.17;;
54787;SDS011;59598;48.112;16.280;2024-03-07T01:29:50;31.25;;;20.83;;
54787;SDS011;59598;48.112;16.280;2024-03-07T01:32:21;29.35;;;20.92;;
54787;SDS011;59598;48.112;16.280;2024-03-07T01:34:53;32.90;;;21.20;;
54787;SDS011;59598;48.112;16.280;2024-03-07T01:37:27;28.70;;;19.23;;
54787;SDS011;59598;48.112;16.280;2024-03-07T01:39:59;34.53;;;22.02;;
54787;SDS011;59598;48.112;16.280;2024-03-07T01:42:30;29.88;;;21.08;;
54787;SDS011;59598;48.112;16.280;2024-03-07T01:45:02;37.72;;;22.40;;
54787;SDS011;59598;48.112;16.280;2024-03-07T01:47:34;32.55;;;21.23;;
54787;SDS011;59598;48.112;16.280;2024-03-07T01:50:07;34.35;;;22.63;;
54787;SDS011;59598;48.112;16.280;2024-03-07T01:52:39;35.97;;;23.83;;
54787;SDS011;59598;48.112;16.280;2024-03-07T01:55:12;34.65;;;23.85;;
54787;SDS011;59598;48.112;16.280;2024-03-07T01:57:44;35.03;;;21.95;;
54787;SDS011;59598;48.112;16.280;2024-03-07T02:00:16;33.78;;;21.90;;
54787;SDS011;59598;48.112;16.280;2024-03-07T02:02:48;37.38;;;23.80;;
54787;SDS011;59598;48.112;16.280;2024-03-07T02:05:20;38.20;;;22.65;;
54787;SDS011;59598;48.112;16.280;2024-03-07T02:07:52;34.33;;;22.92;;
54787;SDS011;59598;48.112;16.280;2024-03-07T02:10:25;31.08;;;20.67;;
54787;SDS011;59598;48.112;16.280;2024-03-07T02:13:03;36.05;;;23.83;;
54787;SDS011;59598;48.112;16.280;2024-03-07T02:15:36;35.65;;;23.13;;
54787;SDS011;59598;48.112;16.280;2024-03-07T02:18:08;35.45;;;23.15;;
54787;SDS011;59598;48.112;16.280;2024-03-07T02:20:44;36.42;;;22.33;;
54787;SDS011;59598;48.112;16.280;2024-03-07T02:23:16;34.20;;;20.55;;
54787;SDS011;59598;48.112;16.280;2024-03-07T02:25:50;34.55;;;23.15;;
54787;SDS011;59598;48.112;16.280;2024-03-07T02:28:22;33.60;;;21.75;;
54787;SDS011;59598;48.112;16.280;2024-03-07T02:30:59;30.48;;;19.40;;
54787;SDS011;59598;48.112;16.280;2024-03-07T02:33:33;30.90;;;20.25;;
54787;SDS011;59598;48.112;16.280;2024-03-07T02:38:38;30.90;;;18.70;;
54787;SDS011;59598;48.112;16.280;2024-03-07T02:41:12;26.38;;;17.25;;
54787;SDS011;59598;48.112;16.280;2024-03-07T02:43:46;31.48;;;19.92;;
54787;SDS011;59598;48.112;16.280;2024-03-07T02:46:19;32.50;;;18.88;;
54787;SDS011;59598;48.112;16.280;2024-03-07T02:48:51;26.10;;;16.80;;
54787;SDS011;59598;48.112;16.280;2024-03-07T02:51:22;28.45;;;18.88;;
54787;SDS011;59598;48.112;16.280;2024-03-07T02:53:57;31.73;;;19.83;;
54787;SDS011;59598;48.112;16.280;2024-03-07T02:56:32;32.60;;;19.08;;
54787;SDS011;59598;48.112;16.280;2024-03-07T02:59:05;33.13;;;20.63;;
54787;SDS011;59598;48.112;16.280;2024-03-07T03:01:55;33.65;;;20.48;;
54787;SDS011;59598;48.112;16.280;2024-03-07T03:04:29;29.30;;;19.55;;
54787;SDS011;59598;48.112;16.280;2024-03-07T03:07:01;28.85;;;18.25;;
54787;SDS011;59598;48.112;16.280;2024-03-07T03:09:32;26.85;;;17.98;;
54787;SDS011;59598;48.112;16.280;2024-03-07T03:12:04;28.25;;;18.25;;
54787;SDS011;59598;48.112;16.280;2024-03-07T03:14:35;28.52;;;18.35;;
54787;SDS011;59598;48.112;16.280;2024-03-07T03:17:10;25.42;;;16.42;;
54787;SDS011;59598;48.112;16.280;2024-03-07T03:19:41;24.73;;;14.95;;
54787;SDS011;59598;48.112;16.280;2024-03-07T03:22:13;22.40;;;16.30;;
54787;SDS011;59598;48.112;16.280;2024-03-07T03:24:49;24.25;;;15.43;;
54787;SDS011;59598;48.112;16.280;2024-03-07T03:27:21;21.85;;;13.30;;
54787;SDS011;59598;48.112;16.280;2024-03-07T03:29:52;21.63;;;14.57;;
54787;SDS011;59598;48.112;16.280;2024-03-07T03:32:24;24.80;;;15.73;;
54787;SDS011;59598;48.112;16.280;2024-03-07T03:34:55;23.70;;;14.82;;
54787;SDS011;59598;48.112;16.280;2024-03-07T03:37:29;22.85;;;15.00;;
54787;SDS011;59598;48.112;16.280;2024-03-07T03:40:02;21.23;;;14.00;;
54787;SDS011;59598;48.112;16.280;2024-03-07T03:42:35;17.58;;;11.77;;
54787;SDS011;59598;48.112;16.280;2024-03-07T03:45:12;20.75;;;11.95;;
54787;SDS011;59598;48.112;16.280;2024-03-07T03:47:46;19.33;;;12.43;;
54787;SDS011;59598;48.112;16.280;2024-03-07T03:50:18;20.05;;;13.15;;
54787;SDS011;59598;48.112;16.280;2024-03-07T03:53:08;19.33;;;13.15;;
54787;SDS011;59598;48.112;16.280;2024-03-07T03:55:42;18.73;;;12.63;;
54787;SDS011;59598;48.112;16.280;2024-03-07T03:58:16;19.63;;;11.45;;
54787;SDS011;59598;48.112;16.280;2024-03-07T04:00:47;17.63;;;11.68;;
54787;SDS011;59598;48.112;16.280;2024-03-07T04:03:18;17.65;;;11.85;;
54787;SDS011;59598;48.112;16.280;2024-03-07T04:05:53;19.67;;;11.90;;
54787;SDS011;59598;48.112;16.280;2024-03-07T04:08:25;18.67;;;12.88;;
54787;SDS011;59598;48.112;16.280;2024-03-07T04:10:56;18.55;;;12.18;;
54787;SDS011;59598;48.112;16.280;2024-03-07T04:13:28;18.67;;;12.35;;
54787;SDS011;59598;48.112;16.280;2024-03-07T04:16:01;18.30;;;11.77;;
54787;SDS011;59598;48.112;16.280;2024-03-07T04:18:33;17.35;;;11.63;;
54787;SDS011;59598;48.112;16.280;2024-03-07T04:21:10;17.35;;;11.82;;
54787;SDS011;59598;48.112;16.280;2024-03-07T04:26:12;15.00;;;9.45;;
54787;SDS011;59598;48.112;16.280;2024-03-07T04:28:45;16.93;;;11.17;;
54787;SDS011;59598;48.112;16.280;2024-03-07T04:31:18;15.20;;;9.70;;
54787;SDS011;59598;48.112;16.280;2024-03-07T04:33:54;16.93;;;10.30;;
54787;SDS011;59598;48.112;16.280;2024-03-07T04:36:26;14.10;;;8.75;;
54787;SDS011;59598;48.112;16.280;2024-03-07T04:38:57;15.82;;;10.73;;
54787;SDS011;59598;48.112;16.280;2024-03-07T04:41:31;14.80;;;9.77;;
54787;SDS011;59598;48.112;16.280;2024-03-07T04:44:02;14.35;;;9.95;;
54787;SDS011;59598;48.112;16.280;2024-03-07T04:46:36;12.82;;;7.72;;
54787;SDS011;59598;48.112;16.280;2024-03-07T04:49:09;14.30;;;8.98;;
54787;SDS011;59598;48.112;16.280;2024-03-07T04:51:41;13.63;;;9.10;;
54787;SDS011;59598;48.112;16.280;2024-03-07T04:54:15;14.10;;;8.73;;
54787;SDS011;59598;48.112;16.280;2024-03-07T04:56:49;14.40;;;9.38;;
54787;SDS011;59598;48.112;16.280;2024-03-07T04:59:21;11.48;;;8.88;;
54787;SDS011;59598;48.112;16.280;2024-03-07T05:01:53;15.13;;;10.40;;
54787;SDS011;59598;48.112;16.280;2024-03-07T05:04:24;14.57;;;10.05;;
54787;SDS011;59598;48.112;16.280;2024-03-07T05:06:59;15.73;;;9.40;;
54787;SDS011;59598;48.112;16.280;2024-03-07T05:09:31;14.77;;;10.30;;
54787;SDS011;59598;48.112;16.280;2024-03-07T05:12:04;13.82;;;10.25;;
54787;SDS011;59598;48.112;16.280;2024-03-07T05:14:35;14.27;;;9.93;;
54787;SDS011;59598;48.112;16.280;2024-03-07T05:17:07;18.35;;;10.07;;
54787;SDS011;59598;48.112;16.280;2024-03-07T05:19:41;17.05;;;11.63;;
54787;SDS011;59598;48.112;16.280;2024-03-07T05:22:18;18.20;;;10.82;;
54787;SDS011;59598;48.112;16.280;2024-03-07T05:24:52;15.07;;;11.15;;
54787;SDS011;59598;48.112;16.280;2024-03-07T05:27:24;15.60;;;9.98;;
54787;SDS011;59598;48.112;16.280;2024-03-07T05:29:56;16.20;;;10.98;;
54787;SDS011;59598;48.112;16.280;2024-03-07T05:32:30;16.73;;;11.38;;
54787;SDS011;59598;48.112;16.280;2024-03-07T05:35:04;16.02;;;10.60;;
54787;SDS011;59598;48.112;16.280;2024-03-07T05:37:35;20.40;;;12.35;;
54787;SDS011;59598;48.112;16.280;2024-03-07T05:40:07;15.77;;;11.07;;
54787;SDS011;59598;48.112;16.280;2024-03-07T05:42:41;15.10;;;11.05;;
54787;SDS011;59598;48.112;16.280;2024-03-07T05:45:13;19.65;;;12.18;;
54787;SDS011;59598;48.112;16.280;2024-03-07T05:47:48;17.90;;;12.07;;
54787;SDS011;59598;48.112;16.280;2024-03-07T05:50:22;16.45;;;11.18;;
54787;SDS011;59598;48.112;16.280;2024-03-07T05:52:55;17.98;;;10.77;;
54787;SDS011;59598;48.112;16.280;2024-03-07T05:55:28;14.93;;;10.27;;
54787;SDS011;59598;48.112;16.280;2024-03-07T05:58:06;16.95;;;11.52;;
